createdAt,value
2023-02-11T00:01:34.775Z,58.40
2023-02-11T00:04:04.452Z,51.10
2023-02-11T00:06:34.842Z,47.20
2023-02-11T00:09:04.238Z,49.90
2023-02-11T00:11:32.554Z,50.10
2023-02-11T00:14:04.863Z,56.60
2023-02-11T00:16:33.036Z,47.10
2023-02-11T00:19:02.820Z,49.20
2023-02-11T00:21:32.203Z,52.30
2023-02-11T00:24:02.362Z,54.20
2023-02-11T00:26:34.391Z,49.50
2023-02-11T00:29:03.962Z,48.70
2023-02-11T00:31:33.659Z,56.30
2023-02-11T00:34:02.151Z,54.40
2023-02-11T00:36:30.276Z,50.90
2023-02-11T00:38:59.670Z,55.80
2023-02-11T00:41:30.045Z,50.00
2023-02-11T00:46:29.742Z,46.30
2023-02-11T00:48:58.122Z,46.30
2023-02-11T00:51:28.492Z,48.00
2023-02-11T00:53:57.338Z,53.30
2023-02-11T00:56:25.606Z,54.50
2023-02-11T00:58:54.219Z,49.10
2023-02-11T01:01:22.204Z,47.80
2023-02-11T01:03:50.304Z,57.50
2023-02-11T01:06:18.995Z,46.90
2023-02-11T01:08:46.830Z,43.80
2023-02-11T01:11:18.383Z,47.00
2023-02-11T01:13:48.016Z,46.60
2023-02-11T01:16:19.387Z,46.10
2023-02-11T01:18:48.559Z,41.20
2023-02-11T01:21:19.066Z,34.60
2023-02-11T01:23:47.063Z,44.60
2023-02-11T01:26:14.939Z,41.40
2023-02-11T01:28:42.980Z,43.50
2023-02-11T01:31:11.121Z,35.70
2023-02-11T01:33:39.106Z,41.70
2023-02-11T01:36:11.568Z,43.70
2023-02-11T01:38:41.277Z,37.80
2023-02-11T01:41:14.601Z,42.00
2023-02-11T01:43:46.853Z,40.70
2023-02-11T01:46:20.883Z,51.60
2023-02-11T01:48:55.535Z,46.90
2023-02-11T01:51:48.315Z,45.30
2023-02-11T01:54:40.850Z,41.70
2023-02-11T01:57:22.315Z,50.10
2023-02-11T02:00:14.477Z,52.60
2023-02-11T02:02:54.319Z,50.70
2023-02-11T02:05:34.770Z,43.40
2023-02-11T02:08:21.368Z,39.50
2023-02-11T02:10:56.448Z,38.00
2023-02-11T02:13:25.345Z,37.00
2023-02-11T02:16:00.088Z,46.50
2023-02-11T02:18:31.069Z,44.70
2023-02-11T02:21:28.277Z,45.00
2023-02-11T02:24:13.870Z,34.70
2023-02-11T02:27:00.533Z,37.10
2023-02-11T02:29:37.866Z,38.30
2023-02-11T02:32:35.291Z,36.80
2023-02-11T02:35:34.300Z,38.10
2023-02-11T02:38:02.134Z,43.30
2023-02-11T02:40:34.992Z,45.90
2023-02-11T02:43:04.213Z,60.20
2023-02-11T02:45:33.323Z,47.20
2023-02-11T02:48:01.147Z,58.60
2023-02-11T02:50:33.933Z,53.50
2023-02-11T02:53:20.717Z,51.00
2023-02-11T02:56:06.524Z,46.40
2023-02-11T02:59:03.634Z,41.90
2023-02-11T03:01:56.256Z,43.50
2023-02-11T03:04:37.633Z,36.00
2023-02-11T03:07:29.732Z,43.50
2023-02-11T03:10:03.980Z,41.30
2023-02-11T03:12:34.982Z,47.30
2023-02-11T03:17:36.038Z,40.20
2023-02-11T03:20:06.971Z,39.70
2023-02-11T03:22:41.555Z,43.10
2023-02-11T03:25:09.940Z,43.30
2023-02-11T03:27:47.209Z,46.20
2023-02-11T03:30:23.966Z,44.80
2023-02-11T03:33:14.785Z,46.40
2023-02-11T03:35:51.030Z,42.70
2023-02-11T03:38:34.957Z,38.90
2023-02-11T03:41:07.018Z,46.30
2023-02-11T03:43:42.134Z,42.00
2023-02-11T03:46:12.564Z,35.20
2023-02-11T03:48:55.124Z,37.80
2023-02-11T03:51:25.639Z,36.10
2023-02-11T03:53:57.894Z,44.40
2023-02-11T03:56:31.081Z,38.00
2023-02-11T03:58:59.009Z,41.20
2023-02-11T04:01:27.173Z,34.10
2023-02-11T04:03:55.162Z,40.70
2023-02-11T04:06:23.140Z,43.80
2023-02-11T04:08:51.031Z,39.40
2023-02-11T04:11:19.112Z,38.60
2023-02-11T04:13:46.987Z,37.60
2023-02-11T04:16:15.077Z,35.00
2023-02-11T04:18:42.984Z,33.70
2023-02-11T04:21:11.200Z,36.60
2023-02-11T04:23:39.140Z,38.00
2023-02-11T04:26:07.248Z,37.70
2023-02-11T04:28:36.410Z,35.30
2023-02-11T04:31:04.884Z,37.20
2023-02-11T04:33:32.927Z,39.20
2023-02-11T04:36:00.798Z,43.90
2023-02-11T04:38:28.609Z,39.50
2023-02-11T04:40:58.257Z,32.70
2023-02-11T04:43:26.229Z,39.30
2023-02-11T04:45:58.460Z,37.40
2023-02-11T04:48:26.754Z,36.20
2023-02-11T04:50:54.688Z,36.00
2023-02-11T04:53:22.980Z,35.60
2023-02-11T04:55:52.088Z,38.60
2023-02-11T04:58:20.545Z,36.80
2023-02-11T05:00:48.335Z,38.90
2023-02-11T05:03:16.553Z,32.80
2023-02-11T05:05:44.468Z,36.50
2023-02-11T05:08:12.536Z,35.50
2023-02-11T05:10:40.404Z,35.80
2023-02-11T05:13:08.317Z,39.00
2023-02-11T05:15:36.267Z,34.40
2023-02-11T05:18:04.679Z,32.30
2023-02-11T05:20:32.562Z,44.50
2023-02-11T05:23:00.418Z,45.60
2023-02-11T05:25:28.243Z,47.00
2023-02-11T05:27:56.241Z,62.50
2023-02-11T05:30:24.058Z,64.50
2023-02-11T05:32:52.336Z,52.00
2023-02-11T05:35:20.248Z,39.90
2023-02-11T05:37:48.092Z,37.40
2023-02-11T05:40:16.450Z,49.10
2023-02-11T05:42:44.478Z,37.20
2023-02-11T05:45:12.474Z,36.70
2023-02-11T05:47:40.339Z,35.00
2023-02-11T05:50:08.842Z,35.70
2023-02-11T05:52:36.792Z,31.50
2023-02-11T05:55:05.558Z,37.80
2023-02-11T05:57:33.461Z,34.10
2023-02-11T06:00:01.542Z,41.60
2023-02-11T06:02:40.386Z,47.90
2023-02-11T06:05:09.301Z,43.60
2023-02-11T06:07:39.708Z,44.70
2023-02-11T06:10:08.699Z,42.50
2023-02-11T06:12:39.410Z,42.70
2023-02-11T06:15:07.845Z,41.00
2023-02-11T06:17:37.505Z,34.60
2023-02-11T06:20:08.440Z,39.20
2023-02-11T06:25:04.788Z,29.30
2023-02-11T06:27:32.766Z,26.90
2023-02-11T06:30:00.615Z,30.40
2023-02-11T06:32:43.379Z,37.40
2023-02-11T06:35:12.869Z,31.50
2023-02-11T06:37:42.292Z,27.50
2023-02-11T06:40:11.830Z,33.60
2023-02-11T06:42:39.935Z,35.90
2023-02-11T06:45:13.164Z,28.10
2023-02-11T06:47:41.659Z,25.20
2023-02-11T06:50:14.089Z,35.70
2023-02-11T06:52:42.059Z,32.10
2023-02-11T06:55:10.251Z,40.40
2023-02-11T06:57:43.510Z,42.20
2023-02-11T07:00:12.482Z,38.80
2023-02-11T07:02:40.577Z,33.30
2023-02-11T07:05:09.434Z,41.50
2023-02-11T07:07:37.944Z,47.00
2023-02-11T07:10:07.024Z,67.80
2023-02-11T07:12:35.043Z,57.60
2023-02-11T07:15:03.436Z,67.00
2023-02-11T07:17:31.345Z,63.10
2023-02-11T07:19:59.202Z,52.20
2023-02-11T07:22:27.425Z,49.50
2023-02-11T07:24:55.329Z,42.40
2023-02-11T07:27:23.334Z,42.60
2023-02-11T07:29:51.437Z,38.80
2023-02-11T07:32:19.613Z,36.40
2023-02-11T07:34:48.633Z,40.90
2023-02-11T07:37:16.811Z,28.70
2023-02-11T07:39:44.689Z,29.00
2023-02-11T07:42:12.777Z,43.00
2023-02-11T07:44:40.709Z,38.10
2023-02-11T07:47:08.879Z,39.00
2023-02-11T07:49:36.877Z,36.70
2023-02-11T07:52:04.861Z,38.70
2023-02-11T07:54:32.925Z,38.30
2023-02-11T07:57:00.772Z,35.20
2023-02-11T07:59:35.928Z,40.60
2023-02-11T08:02:04.040Z,43.80
2023-02-11T08:04:32.072Z,43.40
2023-02-11T08:07:00.057Z,43.30
2023-02-11T08:09:27.975Z,45.00
2023-02-11T08:11:55.905Z,41.10
2023-02-11T08:14:25.381Z,38.60
2023-02-11T08:16:53.488Z,40.00
2023-02-11T08:19:21.507Z,31.30
2023-02-11T08:21:50.101Z,30.30
2023-02-11T08:24:17.946Z,44.70
2023-02-11T08:26:46.052Z,33.40
2023-02-11T08:29:15.767Z,32.30
2023-02-11T08:31:47.235Z,33.10
2023-02-11T08:34:18.540Z,32.50
2023-02-11T08:36:47.914Z,29.10
2023-02-11T08:39:20.457Z,28.40
2023-02-11T08:41:54.057Z,29.10
2023-02-11T08:44:23.507Z,33.20
2023-02-11T08:46:51.993Z,38.70
2023-02-11T08:49:20.579Z,33.40
2023-02-11T08:51:49.725Z,47.80
2023-02-11T08:54:18.013Z,35.70
2023-02-11T08:56:46.381Z,36.60
2023-02-11T08:59:15.662Z,37.80
2023-02-11T09:01:44.665Z,36.60
2023-02-11T09:04:13.068Z,38.10
2023-02-11T09:06:41.469Z,28.80
2023-02-11T09:09:13.630Z,30.80
2023-02-11T09:11:43.325Z,35.70
2023-02-11T09:14:23.179Z,29.50
2023-02-11T09:16:51.934Z,31.50
2023-02-11T09:19:21.270Z,28.90
2023-02-11T09:21:49.617Z,24.20
2023-02-11T09:24:18.598Z,37.00
2023-02-11T09:26:46.645Z,27.40
2023-02-11T09:29:14.573Z,37.60
2023-02-11T09:31:42.801Z,28.70
2023-02-11T09:34:12.183Z,36.00
2023-02-11T09:36:41.596Z,32.00
2023-02-11T09:39:14.481Z,29.10
2023-02-11T09:41:54.599Z,30.90
2023-02-11T09:44:27.220Z,49.50
2023-02-11T09:46:59.817Z,52.50
2023-02-11T09:49:45.404Z,55.70
2023-02-11T09:52:53.053Z,37.30
2023-02-11T09:55:27.041Z,36.80
2023-02-11T09:57:56.380Z,32.20
2023-02-11T10:00:34.625Z,34.80
2023-02-11T10:03:38.809Z,30.90
2023-02-11T10:06:22.110Z,32.60
2023-02-11T10:09:12.943Z,36.30
2023-02-11T10:11:59.476Z,29.20
2023-02-11T10:15:09.633Z,31.90
2023-02-11T10:18:22.696Z,28.70
2023-02-11T10:21:23.529Z,38.30
2023-02-11T10:23:57.306Z,30.00
2023-02-11T10:26:30.989Z,32.50
2023-02-11T10:29:02.332Z,43.50
2023-02-11T10:31:42.069Z,38.90
2023-02-11T10:34:11.858Z,37.00
2023-02-11T10:36:43.405Z,36.80
2023-02-11T10:39:13.224Z,37.30
2023-02-11T10:41:46.298Z,36.60
2023-02-11T10:44:50.128Z,40.30
2023-02-11T10:47:22.807Z,48.80
2023-02-11T10:49:51.239Z,58.40
2023-02-11T10:52:30.607Z,49.20
2023-02-11T10:55:24.410Z,77.30
2023-02-11T10:58:02.981Z,50.10
2023-02-11T11:00:36.144Z,34.90
2023-02-11T11:03:17.750Z,39.40
2023-02-11T11:05:47.268Z,51.70
2023-02-11T11:08:16.599Z,44.60
2023-02-11T11:11:05.163Z,34.60
2023-02-11T11:13:42.524Z,36.60
2023-02-11T11:16:13.221Z,36.70
2023-02-11T11:18:43.917Z,38.10
2023-02-11T11:21:33.609Z,39.60
2023-02-11T11:24:03.904Z,40.50
2023-02-11T11:26:50.846Z,42.60
2023-02-11T11:29:26.962Z,37.20
2023-02-11T11:32:04.869Z,49.00
2023-02-11T11:34:32.849Z,74.60
2023-02-11T11:37:10.409Z,48.20
2023-02-11T11:39:40.025Z,39.60
2023-02-11T11:42:29.272Z,35.30
2023-02-11T11:45:02.618Z,37.30
2023-02-11T11:47:41.534Z,35.90
2023-02-11T11:50:28.128Z,34.00
2023-02-11T11:53:25.688Z,33.10
2023-02-11T11:56:30.096Z,35.90
2023-02-11T11:59:03.722Z,38.40
2023-02-11T12:02:06.221Z,34.30
2023-02-11T12:04:38.401Z,30.20
2023-02-11T12:07:12.720Z,38.90
2023-02-11T12:09:59.121Z,33.60
2023-02-11T12:12:39.362Z,32.20
2023-02-11T12:15:39.493Z,32.10
2023-02-11T12:18:54.186Z,35.10
2023-02-11T12:21:52.985Z,36.20
2023-02-11T12:24:48.990Z,34.10
2023-02-11T12:27:29.874Z,34.00
2023-02-11T12:30:08.078Z,29.20
2023-02-11T12:33:09.761Z,33.70
2023-02-11T12:36:00.205Z,36.30
2023-02-11T12:38:52.309Z,31.10
2023-02-11T12:42:24.042Z,36.00
2023-02-11T12:45:04.084Z,31.90
2023-02-11T12:47:56.701Z,33.40
2023-02-11T12:50:52.944Z,35.80
2023-02-11T12:53:56.410Z,37.40
2023-02-11T12:56:38.170Z,34.70
2023-02-11T12:59:16.166Z,36.40
2023-02-11T13:01:45.125Z,38.00
2023-02-11T13:04:53.960Z,36.20
2023-02-11T13:07:32.444Z,43.50
2023-02-11T13:10:15.673Z,40.70
2023-02-11T13:15:35.547Z,44.40
2023-02-11T13:18:13.464Z,33.50
2023-02-11T13:20:51.790Z,37.60
2023-02-11T13:23:44.024Z,47.10
2023-02-11T13:26:20.873Z,52.50
2023-02-11T13:29:17.938Z,39.70
2023-02-11T13:31:56.571Z,37.90
2023-02-11T13:34:44.494Z,42.00
2023-02-11T13:37:26.660Z,45.20
2023-02-11T13:40:20.782Z,39.80
2023-02-11T13:42:57.931Z,38.00
2023-02-11T13:45:29.036Z,44.10
2023-02-11T13:48:04.529Z,42.60
2023-02-11T13:50:39.611Z,54.50
2023-02-11T13:53:08.971Z,45.80
2023-02-11T13:55:38.326Z,42.80
2023-02-11T13:58:06.280Z,44.40
2023-02-11T14:00:34.196Z,47.30
2023-02-11T14:03:30.209Z,45.30
2023-02-11T14:06:29.222Z,48.60
2023-02-11T14:09:09.676Z,45.90
2023-02-11T14:11:40.972Z,45.60
2023-02-11T14:14:24.424Z,50.90
2023-02-11T14:16:58.818Z,46.70
2023-02-11T14:19:45.135Z,45.60
2023-02-11T14:22:27.717Z,44.40
2023-02-11T14:24:59.453Z,50.10
2023-02-11T14:27:27.534Z,45.70
2023-02-11T14:30:23.068Z,53.30
2023-02-11T14:32:57.068Z,49.60
2023-02-11T14:35:39.556Z,45.10
2023-02-11T14:38:34.138Z,47.80
2023-02-11T14:41:22.522Z,56.50
2023-02-11T14:43:55.381Z,49.30
2023-02-11T14:46:25.305Z,55.10
2023-02-11T14:48:57.644Z,61.00
2023-02-11T14:51:31.584Z,60.00
2023-02-11T14:54:24.983Z,69.70
2023-02-11T14:57:12.440Z,50.80
2023-02-11T14:59:52.514Z,60.10
2023-02-11T15:02:23.934Z,61.60
2023-02-11T15:04:52.012Z,60.50
2023-02-11T15:07:20.052Z,63.20
2023-02-11T15:09:53.893Z,61.70
2023-02-11T15:12:28.353Z,51.30
2023-02-11T15:15:00.281Z,52.20
2023-02-11T15:17:31.934Z,50.70
2023-02-11T15:20:01.935Z,59.50
2023-02-11T15:22:36.506Z,61.10
2023-02-11T15:25:07.470Z,61.60
2023-02-11T15:27:48.312Z,66.60
2023-02-11T15:30:22.495Z,59.40
2023-02-11T15:32:58.143Z,66.00
2023-02-11T15:35:35.111Z,64.60
2023-02-11T15:38:04.400Z,73.80
2023-02-11T15:40:35.571Z,63.90
2023-02-11T15:43:09.116Z,68.00
2023-02-11T15:45:41.862Z,71.50
2023-02-11T15:48:17.388Z,90.60
2023-02-11T15:51:01.418Z,63.30
2023-02-11T15:53:33.027Z,59.10
2023-02-11T15:56:08.158Z,60.80
2023-02-11T15:58:38.383Z,55.80
2023-02-11T16:01:07.685Z,58.60
2023-02-11T16:03:36.369Z,67.60
2023-02-11T16:06:35.805Z,62.90
2023-02-11T16:09:12.758Z,60.10
2023-02-11T16:11:47.117Z,66.40
2023-02-11T16:14:31.188Z,65.50
2023-02-11T16:17:04.069Z,61.20
2023-02-11T16:19:34.038Z,60.30
2023-02-11T16:22:09.132Z,61.30
2023-02-11T16:24:39.279Z,62.00
2023-02-11T16:27:28.615Z,66.10
2023-02-11T16:29:57.971Z,65.70
2023-02-11T16:32:30.284Z,65.20
2023-02-11T16:35:01.382Z,71.90
2023-02-11T16:39:58.296Z,68.90
2023-02-11T16:42:26.342Z,59.40
2023-02-11T16:44:54.406Z,63.90
2023-02-11T16:47:27.589Z,61.30
2023-02-11T16:49:56.950Z,66.00
2023-02-11T16:52:25.690Z,67.60
2023-02-11T16:54:53.866Z,57.10
2023-02-11T16:57:24.082Z,60.60
2023-02-11T16:59:52.994Z,65.10
2023-02-11T17:02:30.500Z,64.00
2023-02-11T17:05:01.934Z,63.00
2023-02-11T17:07:30.008Z,67.30
2023-02-11T17:09:58.265Z,61.10
2023-02-11T17:12:27.272Z,55.80
2023-02-11T17:14:55.308Z,62.50
2023-02-11T17:17:24.022Z,64.10
2023-02-11T17:19:52.074Z,109.20
2023-02-11T17:22:20.176Z,95.10
2023-02-11T17:24:48.213Z,76.60
2023-02-11T17:27:16.394Z,72.20
2023-02-11T17:29:44.454Z,70.20
2023-02-11T17:32:12.661Z,60.70
2023-02-11T17:34:40.935Z,58.50
2023-02-11T17:37:09.648Z,58.30
2023-02-11T17:39:39.891Z,55.40
2023-02-11T17:42:08.864Z,53.90
2023-02-11T17:44:37.354Z,67.60
2023-02-11T17:47:05.419Z,66.10
2023-02-11T17:49:33.487Z,74.10
2023-02-11T17:52:01.643Z,71.60
2023-02-11T17:54:29.672Z,62.70
2023-02-11T17:56:58.592Z,64.30
2023-02-11T17:59:28.571Z,77.20
2023-02-11T18:01:56.388Z,74.30
2023-02-11T18:04:24.422Z,78.50
2023-02-11T18:06:53.717Z,70.60
2023-02-11T18:09:21.663Z,69.10
2023-02-11T18:11:52.537Z,79.80
2023-02-11T18:14:22.282Z,74.70
2023-02-11T18:16:52.227Z,65.60
2023-02-11T18:19:20.679Z,63.60
2023-02-11T18:21:50.532Z,61.40
2023-02-11T18:24:18.723Z,54.20
2023-02-11T18:26:46.735Z,49.90
2023-02-11T18:29:15.033Z,59.60
2023-02-11T18:31:43.334Z,49.00
2023-02-11T18:34:14.832Z,56.70
2023-02-11T18:36:42.966Z,61.70
2023-02-11T18:39:11.069Z,54.40
2023-02-11T18:41:41.438Z,55.80
2023-02-11T18:44:11.063Z,61.20
2023-02-11T18:46:39.060Z,65.90
2023-02-11T18:49:07.339Z,62.60
2023-02-11T18:51:35.464Z,52.40
2023-02-11T18:54:03.690Z,53.50
2023-02-11T18:56:31.698Z,60.10
2023-02-11T18:59:01.463Z,57.10
2023-02-11T19:01:34.223Z,53.80
2023-02-11T19:04:04.681Z,50.80
2023-02-11T19:06:36.441Z,54.70
2023-02-11T19:09:10.102Z,62.70
2023-02-11T19:11:53.968Z,59.70
2023-02-11T19:14:27.299Z,48.70
2023-02-11T19:16:57.760Z,50.10
2023-02-11T19:19:29.615Z,47.30
2023-02-11T19:21:59.554Z,57.30
2023-02-11T19:24:29.062Z,45.50
2023-02-11T19:27:00.186Z,61.80
2023-02-11T19:31:56.868Z,53.80
2023-02-11T19:34:25.136Z,58.60
2023-02-11T19:36:54.435Z,55.80
2023-02-11T19:39:24.816Z,50.90
2023-02-11T19:41:53.481Z,53.30
2023-02-11T19:44:21.637Z,60.20
2023-02-11T19:46:52.789Z,57.90
2023-02-11T19:49:26.047Z,55.10
2023-02-11T19:51:55.510Z,54.60
2023-02-11T19:54:26.259Z,56.30
2023-02-11T19:56:54.270Z,65.60
2023-02-11T19:59:22.480Z,63.90
2023-02-11T20:01:50.602Z,57.70
2023-02-11T20:04:20.146Z,56.40
2023-02-11T20:06:49.075Z,50.90
2023-02-11T20:09:17.233Z,51.60
2023-02-11T20:11:45.486Z,49.40
2023-02-11T20:14:15.316Z,46.10
2023-02-11T20:16:48.990Z,50.60
2023-02-11T20:19:21.581Z,47.30
2023-02-11T20:21:56.281Z,51.90
2023-02-11T20:24:28.250Z,52.70
2023-02-11T20:26:56.582Z,49.10
2023-02-11T20:29:26.028Z,47.40
2023-02-11T20:31:55.009Z,43.90
2023-02-11T20:34:25.037Z,55.90
2023-02-11T20:36:53.557Z,44.20
2023-02-11T20:39:23.541Z,53.30
2023-02-11T20:41:52.560Z,47.80
2023-02-11T20:44:24.544Z,58.30
2023-02-11T20:46:54.572Z,52.00
2023-02-11T20:49:24.650Z,56.00
2023-02-11T20:51:54.030Z,53.10
2023-02-11T20:54:23.695Z,55.50
2023-02-11T20:56:57.131Z,54.20
2023-02-11T20:59:28.649Z,50.60
2023-02-11T21:01:57.412Z,46.10
2023-02-11T21:04:30.886Z,57.60
2023-02-11T21:07:01.839Z,48.30
2023-02-11T21:09:33.368Z,64.50
2023-02-11T21:12:03.215Z,62.80
2023-02-11T21:14:31.316Z,62.50
2023-02-11T21:17:14.436Z,55.80
2023-02-11T21:19:54.564Z,47.20
2023-02-11T21:22:22.546Z,63.60
2023-02-11T21:24:51.121Z,63.20
2023-02-11T21:27:20.717Z,69.20
2023-02-11T21:29:54.444Z,58.40
2023-02-11T21:32:28.968Z,61.40
2023-02-11T21:35:00.543Z,52.20
2023-02-11T21:37:29.982Z,47.40
2023-02-11T21:39:58.284Z,53.50
2023-02-11T21:42:29.329Z,46.20
2023-02-11T21:44:59.444Z,51.20
2023-02-11T21:47:27.945Z,56.80
2023-02-11T21:49:56.130Z,54.50
2023-02-11T21:52:25.045Z,50.30
2023-02-11T21:54:53.015Z,55.90
2023-02-11T21:57:20.951Z,60.40
2023-02-11T21:59:48.964Z,54.80
2023-02-11T22:02:16.998Z,41.90
2023-02-11T22:04:45.074Z,47.00
2023-02-11T22:07:13.075Z,52.90
2023-02-11T22:09:41.882Z,57.20
2023-02-11T22:12:10.329Z,47.70
2023-02-11T22:14:38.914Z,50.60
2023-02-11T22:17:08.730Z,42.40
2023-02-11T22:19:36.730Z,54.80
2023-02-11T22:22:05.046Z,52.60
2023-02-11T22:24:33.376Z,50.20
2023-02-11T22:27:02.277Z,53.80
2023-02-11T22:29:30.385Z,46.70
2023-02-11T22:31:58.699Z,52.60
2023-02-11T22:34:26.692Z,44.80
2023-02-11T22:36:54.706Z,47.60
2023-02-11T22:39:23.046Z,51.40
2023-02-11T22:41:53.029Z,52.80
2023-02-11T22:44:21.892Z,44.20
2023-02-11T22:46:51.261Z,46.20
2023-02-11T22:49:21.461Z,47.10
2023-02-11T22:51:49.515Z,51.20
2023-02-11T22:54:19.278Z,48.10
2023-02-11T22:56:51.022Z,45.40
2023-02-11T22:59:19.426Z,47.30
2023-02-11T23:01:47.859Z,45.70
2023-02-11T23:04:19.190Z,44.30
2023-02-11T23:06:47.938Z,42.60
2023-02-11T23:09:16.692Z,51.00
2023-02-11T23:11:44.875Z,46.70
2023-02-11T23:14:12.934Z,46.80
2023-02-11T23:16:41.404Z,47.60
2023-02-11T23:19:10.893Z,56.20
2023-02-11T23:21:39.850Z,52.00
2023-02-11T23:24:12.205Z,43.70
2023-02-11T23:26:42.288Z,46.50
2023-02-11T23:29:11.185Z,54.00
2023-02-11T23:31:43.520Z,57.20
2023-02-11T23:34:15.082Z,41.40
2023-02-11T23:36:44.436Z,45.50
2023-02-11T23:39:15.567Z,47.80
2023-02-11T23:41:44.251Z,48.70
2023-02-11T23:44:12.202Z,47.50
2023-02-11T23:46:40.192Z,46.80
2023-02-11T23:49:08.146Z,58.70
2023-02-11T23:51:36.129Z,60.50
2023-02-11T23:54:04.188Z,51.70
2023-02-11T23:56:32.150Z,52.80
2023-02-11T23:59:00.124Z,56.80
